Time;durP1;ratioP1;P1;durP2;ratioP2;P2;SDS_P1;SDS_P2;PMS_P1;PMS_P2;Temp;Humidity;BMP_temperature;BMP_pressure;BME280_temperature;BME280_humidity;BME280_pressure;Samples;Min_cycle;Max_cycle;Signal;HPM_P1;HPM_P2
2021/12/15 00:01:38;;;;;;;22.42;10.85;;;;;;;0.66;98.30;99859.72;4501725;31;20100;-72
2021/12/15 00:04:07;;;;;;;23.50;11.43;;;;;;;0.57;98.95;99854.84;4498446;31;20096;-72
2021/12/15 00:06:35;;;;;;;26.90;11.30;;;;;;;0.57;98.97;99853.09;4501767;31;20145;-73
2021/12/15 00:09:05;;;;;;;20.80;10.02;;;;;;;0.58;99.33;99852.22;4501974;31;20104;-72
2021/12/15 00:11:36;;;;;;;24.67;11.05;;;;;;;0.62;99.25;99852.97;4501643;31;20114;-72
2021/12/15 00:14:09;;;;;;;26.65;12.02;;;;;;;0.80;98.31;99844.66;4501689;31;20075;-72
2021/12/15 00:16:37;;;;;;;25.30;11.37;;;;;;;0.92;97.36;99850.31;4501714;31;20194;-72
2021/12/15 00:19:06;;;;;;;19.95;10.30;;;;;;;0.96;97.22;99845.00;4501077;31;20151;-72
2021/12/15 00:21:34;;;;;;;24.90;11.90;;;;;;;0.77;97.81;99846.47;4501491;31;20104;-72
2021/12/15 00:24:03;;;;;;;21.92;11.60;;;;;;;0.76;98.17;99842.19;4501531;31;20123;-72
2021/12/15 00:26:30;;;;;;;22.90;10.65;;;;;;;0.84;98.04;99845.41;4501401;31;20094;-72
2021/12/15 00:28:57;;;;;;;23.10;11.50;;;;;;;0.71;98.07;99847.50;4493805;31;20127;-72
2021/12/15 00:31:25;;;;;;;24.67;12.20;;;;;;;0.65;98.27;99843.41;4499593;31;20116;-72
2021/12/15 00:33:56;;;;;;;25.77;11.50;;;;;;;0.74;97.44;99841.41;4501337;31;20119;-72
2021/12/15 00:36:23;;;;;;;25.98;12.40;;;;;;;0.64;97.85;99839.13;4501269;31;20085;-72
2021/12/15 00:38:52;;;;;;;30.50;12.23;;;;;;;0.70;97.63;99851.00;4500667;31;20112;-72
2021/12/15 00:41:19;;;;;;;29.33;12.18;;;;;;;0.73;97.45;99853.47;4501645;31;20207;-72
2021/12/15 00:43:47;;;;;;;24.67;12.52;;;;;;;0.66;97.95;99847.66;4501380;31;20116;-72
2021/12/15 00:46:14;;;;;;;27.95;13.15;;;;;;;0.64;98.69;99854.59;4500357;31;20480;-72
2021/12/15 00:48:43;;;;;;;28.77;14.50;;;;;;;0.60;99.25;99858.16;4501179;31;20157;-72
2021/12/15 00:51:10;;;;;;;35.85;16.15;;;;;;;0.61;99.75;99859.03;4501216;31;20461;-72
2021/12/15 00:53:38;;;;;;;35.05;16.10;;;;;;;0.57;100.00;99860.84;4500933;31;20171;-72
2021/12/15 00:56:05;;;;;;;30.15;13.93;;;;;;;0.64;100.00;99864.09;4501222;31;20088;-72
2021/12/15 00:58:32;;;;;;;34.65;16.58;;;;;;;0.65;100.00;99861.47;4501300;31;20092;-72
2021/12/15 01:01:01;;;;;;;34.90;16.35;;;;;;;0.65;100.00;99869.19;4501193;31;20484;-72
2021/12/15 01:03:30;;;;;;;37.78;16.98;;;;;;;0.58;100.00;99859.94;4501289;31;20088;-72
2021/12/15 01:06:03;;;;;;;37.55;16.33;;;;;;;0.49;100.00;99863.66;4501014;31;20106;-72
2021/12/15 01:08:32;;;;;;;38.05;15.60;;;;;;;0.45;100.00;99862.03;4501336;31;20453;-72
2021/12/15 01:19:49;;;;;;;41.92;16.55;;;;;;;0.45;100.00;99869.78;4467248;32;20166;-72
2021/12/15 01:22:19;;;;;;;33.60;16.15;;;;;;;0.50;100.00;99865.34;4466843;32;20418;-73
2021/12/15 01:24:47;;;;;;;32.78;16.00;;;;;;;0.57;100.00;99868.56;4466411;32;20096;-72
2021/12/15 01:27:15;;;;;;;43.38;16.65;;;;;;;0.70;100.00;99869.06;4467236;32;20104;-72
2021/12/15 01:29:42;;;;;;;37.25;16.45;;;;;;;0.61;100.00;99872.75;4466839;32;20128;-72
2021/12/15 01:32:09;;;;;;;37.05;15.85;;;;;;;0.61;100.00;99866.75;4467081;32;20112;-72
2021/12/15 01:34:37;;;;;;;34.35;16.45;;;;;;;0.67;100.00;99864.81;4466938;32;20226;-72
2021/12/15 01:37:04;;;;;;;35.92;16.60;;;;;;;0.81;100.00;99856.66;4466846;32;20093;-72
2021/12/15 01:39:32;;;;;;;38.08;17.48;;;;;;;0.76;100.00;99868.84;4466198;32;20128;-72
2021/12/15 01:41:59;;;;;;;38.30;16.85;;;;;;;0.76;100.00;99863.69;4466918;32;20113;-72
2021/12/15 01:47:00;;;;;;;40.47;19.73;;;;;;;0.72;100.00;99856.09;4454390;32;20093;-73
2021/12/15 01:49:44;;;;;;;37.78;17.27;;;;;;;0.81;100.00;99859.22;4473638;32;20752;-72
2021/12/15 01:52:24;;;;;;;39.70;17.58;;;;;;;0.79;100.00;99867.91;4485087;31;20084;-72
2021/12/15 01:55:12;;;;;;;37.97;18.23;;;;;;;0.73;100.00;99871.53;4493073;31;20481;-72
2021/12/15 01:57:41;;;;;;;42.10;17.85;;;;;;;0.87;100.00;99866.78;4499907;31;20592;-72
2021/12/15 02:00:16;;;;;;;40.50;18.05;;;;;;;0.93;100.00;99867.50;4500704;31;20118;-72
2021/12/15 02:02:45;;;;;;;36.78;18.08;;;;;;;0.94;100.00;99870.03;4500876;31;20114;-72
2021/12/15 02:05:12;;;;;;;38.28;17.40;;;;;;;0.93;100.00;99867.50;4500813;31;20099;-72
2021/12/15 02:07:41;;;;;;;38.47;17.90;;;;;;;0.91;100.00;99864.97;4500997;31;20146;-72
2021/12/15 02:10:09;;;;;;;39.45;18.77;;;;;;;0.91;100.00;99858.94;4500209;31;20143;-72
2021/12/15 02:12:56;;;;;;;41.72;16.73;;;;;;;0.87;100.00;99855.63;4500708;31;20579;-72
2021/12/15 02:15:29;;;;;;;35.95;17.52;;;;;;;0.86;100.00;99852.22;4500883;31;20088;-72
2021/12/15 02:17:57;;;;;;;34.30;16.77;;;;;;;0.80;100.00;99864.44;4500374;31;20084;-73
2021/12/15 02:20:46;;;;;;;36.67;17.48;;;;;;;0.76;100.00;99855.09;4500677;31;20445;-72
2021/12/15 02:23:17;;;;;;;30.58;15.48;;;;;;;0.71;100.00;99855.25;4500499;31;20092;-73
2021/12/15 02:25:45;;;;;;;35.25;16.73;;;;;;;0.69;100.00;99854.47;4500286;31;20560;-73
2021/12/15 02:28:12;;;;;;;30.45;15.60;;;;;;;0.72;100.00;99858.69;4500391;31;20096;-72
2021/12/15 02:38:42;;;;;;;30.45;15.07;;;;;;;0.15;98.80;99856.94;4500242;31;20088;-72
2021/12/15 02:41:19;;;;;;;32.90;14.87;;;;;;;0.16;99.96;99856.00;4500190;31;20100;-72
2021/12/15 02:43:56;;;;;;;26.23;12.90;;;;;;;0.19;100.00;99862.00;4500260;31;20137;-72
2021/12/15 02:46:24;;;;;;;30.42;14.13;;;;;;;0.21;99.11;99861.03;4500168;31;20092;-72
2021/12/15 02:48:52;;;;;;;29.75;13.15;;;;;;;0.19;97.89;99864.56;4499901;31;20112;-72
2021/12/15 02:51:20;;;;;;;31.73;14.32;;;;;;;0.10;98.29;99865.66;4500097;31;20104;-72
2021/12/15 02:53:48;;;;;;;28.00;14.70;;;;;;;0.12;98.23;99862.16;4500133;31;20114;-72
2021/12/15 02:56:16;;;;;;;28.02;14.75;;;;;;;0.04;98.80;99851.22;4500058;31;20076;-73
2021/12/15 02:58:59;;;;;;;26.48;13.90;;;;;;;0.01;98.95;99848.72;4499106;31;20092;-72
2021/12/15 03:01:52;;;;;;;31.15;14.65;;;;;;;0.02;99.36;99850.44;4483941;31;20089;-72
2021/12/15 03:07:40;;;;;;;25.83;14.20;;;;;;;-0.01;98.45;99851.34;4484076;31;20099;-72
2021/12/15 03:15:35;;;;;;;35.65;17.42;;;;;;;-0.17;99.33;99851.84;4502029;31;20091;-72
2021/12/15 03:18:23;;;;;;;36.65;16.40;;;;;;;-0.26;100.00;99842.63;4501883;31;20178;-72
2021/12/15 03:20:55;;;;;;;34.08;17.30;;;;;;;-0.22;100.00;99837.34;4501887;31;20080;-72
2021/12/15 03:23:40;;;;;;;37.72;18.73;;;;;;;-0.21;100.00;99839.03;4501822;31;20127;-72
2021/12/15 03:26:08;;;;;;;38.08;18.17;;;;;;;-0.20;100.00;99835.59;4501534;31;20103;-72
2021/12/15 03:39:26;;;;;;;43.58;19.67;;;;;;;0.15;100.00;99818.28;4502209;31;20083;-72
2021/12/15 03:42:02;;;;;;;36.83;18.05;;;;;;;0.22;100.00;99826.66;4501342;31;20118;-72
2021/12/15 03:44:33;;;;;;;35.30;16.65;;;;;;;0.30;100.00;99829.88;4501838;31;20519;-72
2021/12/15 03:47:02;;;;;;;33.72;16.55;;;;;;;0.36;100.00;99841.69;4501290;31;20118;-72
2021/12/15 03:49:29;;;;;;;30.98;14.77;;;;;;;0.12;100.00;99838.97;4501178;31;20096;-72
2021/12/15 03:51:57;;;;;;;33.00;15.85;;;;;;;0.21;100.00;99842.16;4501547;31;20079;-72
2021/12/15 03:54:24;;;;;;;30.83;15.70;;;;;;;0.24;100.00;99847.22;4501739;31;20088;-72
2021/12/15 03:56:54;;;;;;;32.00;15.30;;;;;;;0.11;100.00;99852.75;4501404;31;20126;-72
2021/12/15 03:59:23;;;;;;;26.20;14.02;;;;;;;0.07;100.00;99858.88;4501578;31;20169;-72
2021/12/15 04:01:51;;;;;;;23.73;13.38;;;;;;;-0.14;100.00;99852.59;4501152;31;20080;-72
2021/12/15 04:04:19;;;;;;;30.80;14.65;;;;;;;-0.15;100.00;99845.75;4501571;31;20100;-72
2021/12/15 04:06:46;;;;;;;29.65;14.23;;;;;;;-0.17;100.00;99850.09;4501065;31;20156;-72
2021/12/15 04:09:14;;;;;;;24.50;13.68;;;;;;;-0.39;100.00;99844.69;4501294;31;20158;-72
2021/12/15 04:11:43;;;;;;;26.98;13.43;;;;;;;-0.44;100.00;99846.53;4501005;31;20127;-72
2021/12/15 04:14:19;;;;;;;31.02;14.77;;;;;;;-0.54;100.00;99848.53;4501523;31;20092;-72
2021/12/15 04:16:59;;;;;;;28.25;14.10;;;;;;;-0.67;100.00;99855.72;4501386;31;20512;-72
2021/12/15 04:19:27;;;;;;;25.02;13.50;;;;;;;-0.76;100.00;99853.38;4501464;31;20203;-72
2021/12/15 04:21:55;;;;;;;31.23;14.82;;;;;;;-0.82;100.00;99858.66;4501017;31;20604;-72
2021/12/15 04:24:25;;;;;;;29.25;14.18;;;;;;;-0.80;100.00;99859.47;4501364;31;20122;-72
2021/12/15 04:26:54;;;;;;;33.42;15.27;;;;;;;-0.95;100.00;99863.28;4501261;31;20087;-72
2021/12/15 04:29:22;;;;;;;31.70;14.60;;;;;;;-0.87;100.00;99866.50;4501431;31;20143;-72
2021/12/15 04:32:19;;;;;;;32.22;14.30;;;;;;;-0.83;100.00;99847.56;4501221;31;20095;-72
2021/12/15 04:34:46;;;;;;;32.17;15.43;;;;;;;-0.90;100.00;99858.88;4499333;31;20124;-72
2021/12/15 04:37:13;;;;;;;29.42;14.60;;;;;;;-1.06;100.00;99863.53;4500742;31;20084;-72
2021/12/15 04:39:40;;;;;;;32.47;17.80;;;;;;;-1.08;100.00;99865.28;4501455;31;20092;-72
2021/12/15 04:42:08;;;;;;;32.45;15.23;;;;;;;-1.14;100.00;99875.72;4501130;31;20488;-72
2021/12/15 04:44:35;;;;;;;32.63;16.10;;;;;;;-1.19;100.00;99875.84;4501263;31;20505;-72
2021/12/15 04:47:08;;;;;;;29.23;15.38;;;;;;;-1.19;100.00;99880.16;4501343;31;20115;-72
2021/12/15 04:49:43;;;;;;;30.00;15.27;;;;;;;-1.19;100.00;99877.56;4501312;31;20156;-72
2021/12/15 04:52:12;;;;;;;30.48;14.82;;;;;;;-1.22;100.00;99880.22;4500858;31;20179;-72
2021/12/15 04:54:40;;;;;;;34.70;16.42;;;;;;;-1.33;100.00;99878.72;4501011;31;20191;-72
2021/12/15 04:57:08;;;;;;;33.60;16.90;;;;;;;-1.34;100.00;99878.75;4500879;31;20114;-72
2021/12/15 04:59:36;;;;;;;32.97;16.75;;;;;;;-1.40;100.00;99879.75;4500823;31;20375;-72
2021/12/15 05:02:05;;;;;;;35.17;14.52;;;;;;;-1.44;100.00;99885.81;4500900;31;20083;-73
2021/12/15 05:04:33;;;;;;;35.78;15.82;;;;;;;-1.33;100.00;99891.59;4500864;31;20123;-73
2021/12/15 05:07:00;;;;;;;32.95;16.95;;;;;;;-1.33;100.00;99890.72;4500797;31;20118;-73
2021/12/15 05:09:28;;;;;;;32.53;15.82;;;;;;;-1.34;100.00;99887.31;4500980;31;20096;-73
2021/12/15 05:11:55;;;;;;;34.05;16.87;;;;;;;-1.37;100.00;99895.09;4500886;31;20091;-73
2021/12/15 05:14:24;;;;;;;34.78;17.73;;;;;;;-1.47;100.00;99907.31;4501130;31;20119;-73
2021/12/15 05:16:52;;;;;;;36.33;17.70;;;;;;;-1.50;100.00;99909.09;4500798;31;20123;-73
2021/12/15 05:19:20;;;;;;;33.63;17.25;;;;;;;-1.45;100.00;99908.13;4500788;31;20126;-73
2021/12/15 05:21:50;;;;;;;32.97;15.52;;;;;;;-1.44;100.00;99911.53;4500983;31;20111;-73
2021/12/15 05:24:37;;;;;;;39.03;16.85;;;;;;;-1.41;100.00;99914.03;4501140;31;20083;-73
2021/12/15 05:27:10;;;;;;;37.10;16.87;;;;;;;-1.35;100.00;99919.03;4500810;31;20107;-73
2021/12/15 05:29:40;;;;;;;35.92;16.70;;;;;;;-1.36;100.00;99917.34;4500429;31;20148;-73
2021/12/15 05:32:09;;;;;;;37.97;16.50;;;;;;;-1.28;100.00;99918.03;4499889;31;20096;-73
2021/12/15 05:34:37;;;;;;;35.85;18.00;;;;;;;-1.28;100.00;99920.59;4500297;31;20127;-73
2021/12/15 05:37:05;;;;;;;38.92;16.10;;;;;;;-1.11;100.00;99921.94;4500710;31;20151;-73
2021/12/15 05:39:33;;;;;;;39.38;16.87;;;;;;;-1.07;100.00;99918.44;4500965;31;20159;-73
2021/12/15 05:42:00;;;;;;;31.30;15.55;;;;;;;-0.91;100.00;99924.03;4500595;31;20145;-73
2021/12/15 05:44:27;;;;;;;42.38;18.48;;;;;;;-0.84;100.00;99927.34;4500853;31;20147;-73
2021/12/15 05:46:57;;;;;;;38.25;18.20;;;;;;;-0.78;100.00;99927.19;4500830;31;20118;-73
2021/12/15 05:49:24;;;;;;;39.15;18.30;;;;;;;-0.82;100.00;99928.12;4500335;31;20091;-73
2021/12/15 05:51:52;;;;;;;40.35;19.08;;;;;;;-0.78;100.00;99929.75;4500199;31;20194;-73
2021/12/15 05:54:19;;;;;;;51.97;22.33;;;;;;;-0.74;100.00;99936.53;4500134;31;20149;-72
2021/12/15 05:56:47;;;;;;;54.70;22.42;;;;;;;-0.58;100.00;99935.25;4500387;31;20253;-72
2021/12/15 05:59:15;;;;;;;45.75;21.73;;;;;;;-0.38;100.00;99941.63;4500628;31;20108;-72
2021/12/15 06:01:42;;;;;;;43.10;21.58;;;;;;;-0.38;100.00;99939.06;4500738;31;20108;-72
2021/12/15 06:04:09;;;;;;;49.20;22.15;;;;;;;-0.35;100.00;99941.56;4500703;31;20096;-72
2021/12/15 06:06:37;;;;;;;52.58;20.73;;;;;;;-0.37;100.00;99941.59;4500507;31;20087;-72
2021/12/15 06:09:06;;;;;;;42.75;20.23;;;;;;;-0.33;100.00;99950.09;4492075;31;20088;-72
2021/12/15 06:11:34;;;;;;;52.03;21.37;;;;;;;-0.32;100.00;99949.19;4499652;31;20088;-72
2021/12/15 06:14:02;;;;;;;52.78;22.02;;;;;;;-0.20;100.00;99948.91;4499952;31;20095;-72
2021/12/15 06:16:30;;;;;;;51.05;22.15;;;;;;;-0.16;100.00;99957.38;4500369;31;20168;-72
2021/12/15 06:18:57;;;;;;;54.78;23.35;;;;;;;-0.08;100.00;99958.00;4498130;31;20088;-72
2021/12/15 06:21:24;;;;;;;78.45;22.42;;;;;;;-0.15;100.00;99971.97;4495130;31;20088;-72
2021/12/15 06:23:52;;;;;;;70.22;23.27;;;;;;;-0.02;100.00;99975.03;4497227;31;20453;-72
2021/12/15 06:26:20;;;;;;;76.85;23.23;;;;;;;-0.10;100.00;99982.16;4497570;31;20613;-71
2021/12/15 06:28:48;;;;;;;84.50;23.90;;;;;;;-0.19;100.00;99985.78;4499630;31;20122;-72
2021/12/15 06:31:17;;;;;;;80.87;22.13;;;;;;;-0.17;100.00;99981.44;4483308;32;20585;-72
2021/12/15 06:33:46;;;;;;;73.00;22.13;;;;;;;-0.20;100.00;99977.22;4483370;32;20108;-72
2021/12/15 06:36:20;;;;;;;81.57;23.60;;;;;;;-0.28;100.00;99979.13;4492997;31;20097;-73
2021/12/15 06:38:48;;;;;;;;;;;;;;;-0.22;100.00;99985.87;4488604;31;20159;-72
2021/12/15 06:41:17;;;;;;;71.50;23.42;;;;;;;-0.28;100.00;99986.03;4493427;31;20024;-70
2021/12/15 06:43:48;;;;;;;76.07;23.65;;;;;;;-0.28;100.00;99986.03;4500267;31;20089;-72
2021/12/15 06:46:41;;;;;;;71.72;25.00;;;;;;;-0.44;100.00;99985.53;4502071;31;20114;-72
2021/12/15 06:58:10;;;;;;;87.95;26.12;;;;;;;-0.38;100.00;99995.69;4501884;31;20114;-71
2021/12/15 07:00:18;;;;;;;102.20;25.10;;;;;;;-0.46;100.00;99995.03;4500981;31;20099;-72
2021/12/15 07:02:46;;;;;;;92.97;26.77;;;;;;;-0.56;100.00;100000.41;4501849;31;20112;-71
2021/12/15 07:05:14;;;;;;;110.32;25.08;;;;;;;-0.45;100.00;99999.31;4501579;31;20114;-72
2021/12/15 07:07:44;;;;;;;205.45;26.77;;;;;;;-0.61;100.00;100007.38;4501958;31;20907;-72
2021/12/15 07:10:15;;;;;;;121.05;25.73;;;;;;;-0.81;100.00;100004.44;4501847;31;20088;-73
2021/12/15 07:12:42;;;;;;;145.65;22.62;;;;;;;-0.90;100.00;100016.63;4497884;31;20501;-73
2021/12/15 07:15:10;;;;;;;157.80;22.35;;;;;;;-0.74;100.00;100011.97;4499151;31;20135;-72
2021/12/15 07:17:39;;;;;;;224.40;26.80;;;;;;;-0.69;100.00;100019.59;4499825;31;20096;-73
2021/12/15 07:22:58;;;;;;;170.50;23.20;;;;;;;-0.54;100.00;100016.66;4467101;32;20132;-72
2021/12/15 07:25:26;;;;;;;199.23;25.15;;;;;;;-0.35;100.00;100029.09;4467507;32;20141;-73
2021/12/15 07:27:55;;;;;;;190.35;23.15;;;;;;;-0.37;100.00;100025.72;4467128;32;20115;-73
2021/12/15 07:30:23;;;;;;;132.65;22.92;;;;;;;-0.29;100.00;100023.78;4467306;32;20121;-73
2021/12/15 07:32:50;;;;;;;141.37;23.58;;;;;;;-0.08;100.00;100029.31;4466857;32;20088;-72
2021/12/15 07:35:19;;;;;;;98.00;20.02;;;;;;;-0.15;100.00;100026.03;4466007;32;20581;-73
2021/12/15 07:37:46;;;;;;;81.03;21.73;;;;;;;-0.17;100.00;100029.53;4465199;32;20096;-73
2021/12/15 07:40:21;;;;;;;104.25;21.08;;;;;;;-0.21;100.00;100021.88;4465536;32;20085;-73
2021/12/15 07:43:09;;;;;;;71.03;20.48;;;;;;;-0.15;100.00;100017.44;4465034;32;20830;-73
2021/12/15 07:45:42;;;;;;;59.60;20.85;;;;;;;-0.21;100.00;100027.03;4465529;32;20097;-72
2021/12/15 07:48:12;;;;;;;85.53;18.70;;;;;;;-0.15;100.00;100022.59;4464642;32;20310;-73
2021/12/15 07:50:41;;;;;;;65.80;19.48;;;;;;;-0.19;100.00;100035.56;4464958;32;20130;-73
2021/12/15 07:53:09;;;;;;;70.18;18.95;;;;;;;-0.27;100.00;100042.62;4455887;32;20127;-73
2021/12/15 07:55:37;;;;;;;102.72;21.45;;;;;;;-0.30;100.00;100034.13;4465923;32;20093;-73
2021/12/15 07:58:07;;;;;;;101.03;20.37;;;;;;;-0.20;100.00;100033.03;4459131;32;20155;-73
2021/12/15 08:00:36;;;;;;;80.00;19.90;;;;;;;-0.15;100.00;100040.63;4489984;31;20517;-72
2021/12/15 08:03:04;;;;;;;67.62;20.08;;;;;;;0.02;100.00;100035.09;4501292;31;20115;-72
2021/12/15 08:05:32;;;;;;;48.53;18.90;;;;;;;0.11;100.00;100035.69;4498863;31;20108;-72
2021/12/15 08:08:00;;;;;;;40.35;18.80;;;;;;;0.10;100.00;100046.84;4498801;31;20118;-72
2021/12/15 08:10:27;;;;;;;42.10;18.77;;;;;;;0.30;100.00;100040.34;4500641;31;20406;-73
2021/12/15 08:12:54;;;;;;;50.90;22.08;;;;;;;0.27;100.00;100059.34;4500267;31;20126;-73
2021/12/15 08:15:21;;;;;;;45.90;21.25;;;;;;;0.45;100.00;100055.41;4500961;31;20122;-73
2021/12/15 08:17:51;;;;;;;43.95;19.73;;;;;;;0.59;100.00;100056.75;4500091;31;20135;-74
2021/12/15 08:20:22;;;;;;;39.45;18.48;;;;;;;0.84;100.00;100059.50;4500934;31;20123;-73
2021/12/15 08:22:50;;;;;;;45.97;20.25;;;;;;;1.01;100.00;100062.44;4500700;31;20688;-73
2021/12/15 08:25:18;;;;;;;41.03;18.42;;;;;;;1.13;100.00;100062.97;4499838;31;20105;-73
2021/12/15 08:27:46;;;;;;;42.62;18.75;;;;;;;1.36;100.00;100073.47;4498600;31;20093;-72
2021/12/15 08:30:20;;;;;;;43.72;20.35;;;;;;;1.48;100.00;100077.37;4490024;31;20119;-74
2021/12/15 08:32:50;;;;;;;38.45;18.10;;;;;;;1.77;100.00;100081.66;4499788;31;20426;-73
2021/12/15 08:35:26;;;;;;;38.05;17.90;;;;;;;1.91;100.00;100082.97;4501210;31;20092;-73
2021/12/15 08:37:54;;;;;;;44.45;19.02;;;;;;;2.13;100.00;100086.53;4500452;31;20111;-74
2021/12/15 08:40:23;;;;;;;38.88;18.37;;;;;;;2.35;100.00;100100.44;4486148;31;20092;-74
2021/12/15 08:42:51;;;;;;;37.80;18.65;;;;;;;2.49;99.35;100087.91;4492152;31;20656;-74
2021/12/15 08:45:19;;;;;;;41.90;19.12;;;;;;;2.43;99.52;100094.13;4500883;31;20175;-74
2021/12/15 08:47:47;;;;;;;46.30;20.83;;;;;;;2.47;99.01;100094.87;4500161;31;20131;-74
2021/12/15 08:50:17;;;;;;;43.75;19.80;;;;;;;2.64;97.96;100096.88;4489188;31;20092;-73
2021/12/15 08:52:44;;;;;;;35.88;19.17;;;;;;;2.57;97.68;100101.41;4499302;31;20118;-72
2021/12/15 08:55:13;;;;;;;38.35;17.42;;;;;;;2.67;97.67;100096.78;4500640;31;20469;-74
2021/12/15 08:57:47;;;;;;;35.78;18.33;;;;;;;2.57;97.08;100093.66;4499900;31;20161;-73
2021/12/15 09:00:17;;;;;;;35.53;18.77;;;;;;;2.59;96.57;100101.34;4499230;31;20584;-73
2021/12/15 09:02:45;;;;;;;34.90;16.95;;;;;;;2.70;96.73;100099.25;4499327;31;20204;-74
2021/12/15 09:05:13;;;;;;;32.60;16.55;;;;;;;2.69;96.76;100094.13;4500170;31;20112;-73
2021/12/15 09:07:44;;;;;;;43.10;20.60;;;;;;;3.06;95.89;100090.19;4499666;31;20629;-74
2021/12/15 09:10:11;;;;;;;38.25;19.02;;;;;;;3.28;94.93;100095.44;4500469;31;20092;-74
2021/12/15 09:12:38;;;;;;;36.88;18.00;;;;;;;3.59;94.44;100094.25;4500307;31;20092;-74
2021/12/15 09:15:08;;;;;;;40.80;19.37;;;;;;;3.77;92.94;100090.94;4499511;31;20156;-73
2021/12/15 09:17:35;;;;;;;34.72;16.67;;;;;;;4.02;92.08;100090.78;4500362;31;20358;-73
2021/12/15 09:20:08;;;;;;;34.92;17.67;;;;;;;4.15;90.38;100083.34;4498603;31;20167;-74
2021/12/15 09:22:37;;;;;;;34.00;17.08;;;;;;;4.44;90.03;100082.09;4492249;31;20088;-74
2021/12/15 09:25:10;;;;;;;32.17;15.93;;;;;;;4.69;89.13;100082.81;4497874;31;20558;-74
2021/12/15 09:27:43;;;;;;;32.05;15.77;;;;;;;4.83;87.70;100077.84;4498391;31;20133;-74
2021/12/15 09:30:13;;;;;;;31.77;15.48;;;;;;;5.10;87.46;100074.91;4498358;31;20091;-74
2021/12/15 09:32:41;;;;;;;33.03;17.15;;;;;;;5.16;85.09;100077.22;4497902;31;20088;-73
2021/12/15 09:35:10;;;;;;;27.23;14.30;;;;;;;5.24;83.98;100084.66;4497608;31;20100;-72
2021/12/15 09:37:37;;;;;;;27.90;14.18;;;;;;;5.31;83.69;100078.28;4498384;31;20092;-72
2021/12/15 09:40:07;;;;;;;28.00;13.55;;;;;;;5.44;80.90;100074.19;4499912;31;20080;-72
2021/12/15 09:42:38;;;;;;;31.65;16.33;;;;;;;5.64;81.43;100075.84;4499109;31;20226;-73
2021/12/15 09:45:23;;;;;;;44.25;21.33;;;;;;;5.80;81.04;100078.56;4500379;31;20114;-74
2021/12/15 10:20:15;;;;;;;20.73;10.95;;;;;;;6.27;72.37;100084.97;4357370;32;20123;-73
2021/12/15 10:22:45;;;;;;;19.23;9.85;;;;;;;6.13;71.58;100077.00;4362492;32;20126;-73
2021/12/15 10:25:26;;;;;;;20.85;11.88;;;;;;;6.02;71.44;100074.94;4355471;32;20134;-74
2021/12/15 10:27:59;;;;;;;22.48;11.23;;;;;;;6.27;71.52;100084.13;4358353;32;20166;-74
2021/12/15 10:30:31;;;;;;;22.50;11.40;;;;;;;6.15;70.74;100078.63;4356583;32;20115;-74
2021/12/15 10:33:03;;;;;;;20.40;10.80;;;;;;;6.17;71.08;100084.56;4358446;32;20122;-74
2021/12/15 10:35:33;;;;;;;19.33;11.43;;;;;;;6.38;69.98;100087.87;4357793;32;20127;-74
2021/12/15 10:38:30;;;;;;;19.98;11.12;;;;;;;6.24;70.43;100092.06;4357876;32;20115;-73
2021/12/15 10:41:20;;;;;;;21.70;11.85;;;;;;;6.49;70.94;100089.91;4360065;32;20118;-75
2021/12/15 10:44:09;;;;;;;25.10;13.10;;;;;;;6.83;68.55;100093.41;4370680;32;20181;-74
2021/12/15 10:46:53;;;;;;;21.92;12.15;;;;;;;7.00;70.25;100091.66;4372837;32;20476;-77
2021/12/15 10:49:27;;;;;;;25.75;12.65;;;;;;;7.13;67.90;100094.44;4374265;32;20177;-77
2021/12/15 10:51:57;;;;;;;22.67;11.60;;;;;;;7.09;67.15;100085.97;4373585;32;20106;-76
2021/12/15 10:54:37;;;;;;;23.30;12.48;;;;;;;6.91;68.43;100088.59;4414437;32;20545;-77
2021/12/15 10:57:11;;;;;;;24.23;12.90;;;;;;;6.78;68.45;100090.16;4498921;31;20114;-77
2021/12/15 10:59:44;;;;;;;24.27;13.50;;;;;;;6.48;68.89;100092.59;4499848;31;20099;-77
2021/12/15 11:02:32;;;;;;;24.92;11.55;;;;;;;6.50;69.21;100086.41;4497931;31;20119;-77
2021/12/15 11:05:05;;;;;;;27.27;12.88;;;;;;;6.44;69.38;100096.28;4499927;31;20120;-77
2021/12/15 11:07:32;;;;;;;25.20;12.45;;;;;;;6.49;70.03;100089.09;4499368;31;20119;-77
2021/12/15 11:10:15;;;;;;;22.25;12.65;;;;;;;6.58;68.95;100093.81;4499773;31;20136;-76
2021/12/15 11:12:53;;;;;;;26.27;12.65;;;;;;;6.70;68.55;100092.34;4498391;31;20134;-77
2021/12/15 11:15:27;;;;;;;24.00;12.57;;;;;;;6.79;68.34;100091.87;4497184;31;20533;-74
2021/12/15 11:18:03;;;;;;;24.23;12.52;;;;;;;6.92;68.11;100097.28;4499068;31;20125;-76
2021/12/15 11:20:43;;;;;;;25.70;12.52;;;;;;;6.71;68.89;100088.84;4484882;31;20119;-74
2021/12/15 11:23:18;;;;;;;22.90;12.30;;;;;;;6.77;69.01;100092.84;4494039;31;20092;-76
2021/12/15 11:25:55;;;;;;;29.42;13.00;;;;;;;6.85;68.68;100085.50;4498115;31;20416;-74
2021/12/15 11:28:24;;;;;;;23.80;11.88;;;;;;;6.81;68.25;100090.00;4497963;31;20092;-74
2021/12/15 11:31:06;;;;;;;27.15;12.40;;;;;;;6.73;68.82;100087.81;4499985;31;20108;-75
2021/12/15 11:33:37;;;;;;;25.12;12.95;;;;;;;6.80;68.70;100090.94;4495416;31;20154;-74
2021/12/15 11:36:15;;;;;;;37.67;13.57;;;;;;;6.83;68.58;100082.13;4501752;31;20131;-74
2021/12/15 11:38:43;;;;;;;25.10;13.82;;;;;;;6.90;68.49;100094.75;4501498;31;20458;-75
2021/12/15 11:41:23;;;;;;;28.67;13.25;;;;;;;6.82;69.19;100093.47;4501096;31;20092;-73
2021/12/15 11:43:55;;;;;;;23.10;12.30;;;;;;;6.83;69.34;100088.19;4489545;31;20088;-75
2021/12/15 11:46:38;;;;;;;24.73;11.45;;;;;;;6.78;69.06;100089.34;4487407;31;20156;-75
2021/12/15 11:49:09;;;;;;;22.92;11.57;;;;;;;6.64;68.92;100090.91;4499180;31;20155;-74
2021/12/15 11:51:43;;;;;;;24.45;10.82;;;;;;;6.80;69.17;100087.47;4501642;31;20118;-74
2021/12/15 11:54:20;;;;;;;24.92;9.90;;;;;;;6.69;69.86;100085.44;4500703;31;20100;-74
2021/12/15 11:57:03;;;;;;;16.90;8.70;;;;;;;6.65;68.53;100078.72;4493949;31;20108;-74
2021/12/15 11:59:32;;;;;;;15.52;8.27;;;;;;;6.53;68.39;100093.22;4501113;31;20122;-73
2021/12/15 12:02:07;;;;;;;16.65;8.43;;;;;;;6.57;68.13;100087.78;4500475;31;20118;-74
2021/12/15 12:04:45;;;;;;;16.87;6.97;;;;;;;6.54;68.39;100081.88;4495155;31;20156;-74
2021/12/15 12:07:29;;;;;;;15.75;7.97;;;;;;;6.49;67.77;100082.09;4493182;31;20126;-73
2021/12/15 12:10:05;;;;;;;;;;;;;;;6.63;68.35;100086.62;4496691;31;20164;-73
2021/12/15 12:12:39;;;;;;;16.10;7.22;;;;;;;6.36;67.67;100086.28;4496060;31;20018;-73
2021/12/15 12:15:08;;;;;;;;;;;;;;;6.34;67.23;100078.56;4491872;31;20130;-74
2021/12/15 12:17:38;;;;;;;12.18;6.53;;;;;;;6.20;67.37;100076.62;4493962;31;19988;-74
2021/12/15 12:20:11;;;;;;;16.42;7.90;;;;;;;6.11;67.82;100077.06;4495657;31;20114;-73
2021/12/15 12:22:39;;;;;;;15.93;8.10;;;;;;;6.16;68.19;100082.91;4496935;31;20480;-74
2021/12/15 12:25:11;;;;;;;18.30;8.48;;;;;;;6.29;67.89;100070.13;4497530;31;20100;-73
2021/12/15 12:27:40;;;;;;;13.50;7.05;;;;;;;6.49;67.83;100063.87;4490980;31;20455;-74
2021/12/15 12:30:12;;;;;;;14.65;8.07;;;;;;;6.66;66.89;100073.44;4491754;31;20138;-73
2021/12/15 12:32:40;;;;;;;15.18;7.87;;;;;;;6.49;67.30;100076.06;4493785;31;20080;-74
2021/12/15 12:35:09;;;;;;;17.62;9.10;;;;;;;6.55;67.09;100067.94;4493284;31;20465;-74
2021/12/15 12:37:40;;;;;;;14.73;7.53;;;;;;;6.42;67.59;100072.09;4489884;31;20126;-74
2021/12/15 12:40:22;;;;;;;16.75;7.95;;;;;;;6.40;67.68;100069.56;4496073;31;20661;-75
2021/12/15 12:42:49;;;;;;;18.12;9.57;;;;;;;6.33;67.76;100076.03;4497090;31;20096;-74
2021/12/15 12:45:26;;;;;;;28.75;11.95;;;;;;;6.37;68.42;100082.72;4498756;31;20131;-74
2021/12/15 12:48:12;;;;;;;18.60;9.10;;;;;;;6.21;67.51;100075.72;4498893;31;20088;-74
2021/12/15 12:59:38;;;;;;;14.98;7.97;;;;;;;5.82;70.05;100074.13;4415663;32;20149;-74
2021/12/15 13:02:32;;;;;;;15.10;8.30;;;;;;;5.91;70.36;100072.84;4417477;32;20140;-75
2021/12/15 13:05:00;;;;;;;18.45;7.30;;;;;;;5.95;71.00;100066.56;4418972;32;20094;-74